sensor_id;sensor_type;location;lat;lon;timestamp;P1;durP1;ratioP1;P2;durP2;ratioP2
51971;SDS011;37991;49.662;10.060;2022-11-15T00:00:11;8.73;;;3.70;;
51971;SDS011;37991;49.662;10.060;2022-11-15T00:02:55;6.45;;;3.60;;
51971;SDS011;37991;49.662;10.060;2022-11-15T00:05:39;10.00;;;4.20;;
51971;SDS011;37991;49.662;10.060;2022-11-15T00:08:23;8.52;;;3.50;;
51971;SDS011;37991;49.662;10.060;2022-11-15T00:11:08;6.95;;;3.60;;
51971;SDS011;37991;49.662;10.060;2022-11-15T00:13:57;5.43;;;3.47;;
51971;SDS011;37991;49.662;10.060;2022-11-15T00:16:41;10.23;;;4.07;;
51971;SDS011;37991;49.662;10.060;2022-11-15T00:19:25;6.80;;;3.67;;
51971;SDS011;37991;49.662;10.060;2022-11-15T00:22:09;10.07;;;4.10;;
51971;SDS011;37991;49.662;10.060;2022-11-15T00:24:53;7.22;;;3.53;;
51971;SDS011;37991;49.662;10.060;2022-11-15T00:27:37;6.40;;;3.50;;
51971;SDS011;37991;49.662;10.060;2022-11-15T00:30:21;7.45;;;3.60;;
51971;SDS011;37991;49.662;10.060;2022-11-15T00:33:05;11.75;;;3.47;;
51971;SDS011;37991;49.662;10.060;2022-11-15T00:35:50;10.52;;;3.67;;
51971;SDS011;37991;49.662;10.060;2022-11-15T00:38:35;7.43;;;3.70;;
51971;SDS011;37991;49.662;10.060;2022-11-15T00:41:21;4.68;;;3.15;;
51971;SDS011;37991;49.662;10.060;2022-11-15T00:44:05;5.95;;;3.70;;
51971;SDS011;37991;49.662;10.060;2022-11-15T00:46:48;8.43;;;4.03;;
51971;SDS011;37991;49.662;10.060;2022-11-15T00:49:32;6.78;;;3.35;;
51971;SDS011;37991;49.662;10.060;2022-11-15T00:52:16;10.07;;;3.58;;
51971;SDS011;37991;49.662;10.060;2022-11-15T00:55:00;8.13;;;3.55;;
51971;SDS011;37991;49.662;10.060;2022-11-15T00:57:45;6.43;;;3.33;;
51971;SDS011;37991;49.662;10.060;2022-11-15T01:00:29;6.95;;;3.55;;
51971;SDS011;37991;49.662;10.060;2022-11-15T01:03:13;7.68;;;3.63;;
51971;SDS011;37991;49.662;10.060;2022-11-15T01:05:58;6.47;;;4.00;;
51971;SDS011;37991;49.662;10.060;2022-11-15T01:08:43;6.05;;;3.63;;
51971;SDS011;37991;49.662;10.060;2022-11-15T01:11:27;5.35;;;3.42;;
51971;SDS011;37991;49.662;10.060;2022-11-15T01:14:11;8.00;;;3.70;;
51971;SDS011;37991;49.662;10.060;2022-11-15T01:16:55;9.23;;;3.20;;
51971;SDS011;37991;49.662;10.060;2022-11-15T01:19:39;6.88;;;3.53;;
51971;SDS011;37991;49.662;10.060;2022-11-15T01:22:23;8.25;;;4.03;;
51971;SDS011;37991;49.662;10.060;2022-11-15T01:25:07;7.18;;;3.72;;
51971;SDS011;37991;49.662;10.060;2022-11-15T01:27:51;6.32;;;3.50;;
51971;SDS011;37991;49.662;10.060;2022-11-15T01:30:35;7.40;;;3.67;;
51971;SDS011;37991;49.662;10.060;2022-11-15T01:33:19;5.70;;;3.40;;
51971;SDS011;37991;49.662;10.060;2022-11-15T01:36:04;5.60;;;3.17;;
51971;SDS011;37991;49.662;10.060;2022-11-15T01:38:55;7.75;;;3.58;;
51971;SDS011;37991;49.662;10.060;2022-11-15T01:41:41;12.95;;;3.72;;
51971;SDS011;37991;49.662;10.060;2022-11-15T01:47:22;9.80;;;3.50;;
51971;SDS011;37991;49.662;10.060;2022-11-15T01:50:12;6.60;;;3.60;;
51971;SDS011;37991;49.662;10.060;2022-11-15T01:52:59;6.30;;;3.20;;
51971;SDS011;37991;49.662;10.060;2022-11-15T01:55:43;4.72;;;3.00;;
51971;SDS011;37991;49.662;10.060;2022-11-15T01:58:27;5.47;;;3.25;;
51971;SDS011;37991;49.662;10.060;2022-11-15T02:01:14;6.47;;;3.25;;
51971;SDS011;37991;49.662;10.060;2022-11-15T02:03:59;9.77;;;3.10;;
51971;SDS011;37991;49.662;10.060;2022-11-15T02:07:11;4.82;;;2.75;;
51971;SDS011;37991;49.662;10.060;2022-11-15T02:09:58;5.20;;;2.95;;
51971;SDS011;37991;49.662;10.060;2022-11-15T02:12:49;10.77;;;3.13;;
51971;SDS011;37991;49.662;10.060;2022-11-15T02:18:28;5.50;;;3.25;;
51971;SDS011;37991;49.662;10.060;2022-11-15T02:21:28;4.03;;;2.83;;
51971;SDS011;37991;49.662;10.060;2022-11-15T02:24:45;5.65;;;2.85;;
51971;SDS011;37991;49.662;10.060;2022-11-15T02:27:46;3.95;;;2.40;;
51971;SDS011;37991;49.662;10.060;2022-11-15T02:31:04;4.22;;;3.05;;
51971;SDS011;37991;49.662;10.060;2022-11-15T02:34:10;5.68;;;3.22;;
51971;SDS011;37991;49.662;10.060;2022-11-15T02:37:34;5.10;;;3.03;;
51971;SDS011;37991;49.662;10.060;2022-11-15T02:41:01;5.60;;;2.75;;
51971;SDS011;37991;49.662;10.060;2022-11-15T02:44:01;4.82;;;2.80;;
51971;SDS011;37991;49.662;10.060;2022-11-15T02:46:51;6.90;;;3.15;;
51971;SDS011;37991;49.662;10.060;2022-11-15T02:49:58;6.25;;;2.97;;
51971;SDS011;37991;49.662;10.060;2022-11-15T02:52:48;4.70;;;2.85;;
51971;SDS011;37991;49.662;10.060;2022-11-15T02:55:38;8.95;;;3.10;;
51971;SDS011;37991;49.662;10.060;2022-11-15T02:58:45;5.05;;;3.28;;
51971;SDS011;37991;49.662;10.060;2022-11-15T03:01:51;4.50;;;2.90;;
51971;SDS011;37991;49.662;10.060;2022-11-15T03:07:31;10.35;;;4.00;;
51971;SDS011;37991;49.662;10.060;2022-11-15T03:13:13;6.55;;;3.53;;
51971;SDS011;37991;49.662;10.060;2022-11-15T03:16:02;4.93;;;3.10;;
51971;SDS011;37991;49.662;10.060;2022-11-15T03:18:52;8.63;;;3.40;;
51971;SDS011;37991;49.662;10.060;2022-11-15T03:21:42;2.85;;;2.50;;
51971;SDS011;37991;49.662;10.060;2022-11-15T03:24:27;5.45;;;2.92;;
51971;SDS011;37991;49.662;10.060;2022-11-15T03:27:14;6.00;;;3.20;;
51971;SDS011;37991;49.662;10.060;2022-11-15T03:30:06;6.25;;;3.15;;
51971;SDS011;37991;49.662;10.060;2022-11-15T03:32:55;5.35;;;3.15;;
51971;SDS011;37991;49.662;10.060;2022-11-15T03:35:42;4.57;;;2.90;;
51971;SDS011;37991;49.662;10.060;2022-11-15T03:38:29;4.93;;;3.50;;
51971;SDS011;37991;49.662;10.060;2022-11-15T03:41:28;4.15;;;3.00;;
51971;SDS011;37991;49.662;10.060;2022-11-15T03:44:21;7.25;;;3.08;;
51971;SDS011;37991;49.662;10.060;2022-11-15T03:50:22;8.13;;;3.10;;
51971;SDS011;37991;49.662;10.060;2022-11-15T03:53:07;5.18;;;3.30;;
51971;SDS011;37991;49.662;10.060;2022-11-15T03:55:51;6.80;;;3.13;;
51971;SDS011;37991;49.662;10.060;2022-11-15T03:58:35;4.63;;;3.05;;
51971;SDS011;37991;49.662;10.060;2022-11-15T04:01:19;5.70;;;2.90;;
51971;SDS011;37991;49.662;10.060;2022-11-15T04:04:03;6.75;;;2.83;;
51971;SDS011;37991;49.662;10.060;2022-11-15T04:06:47;3.88;;;2.70;;
51971;SDS011;37991;49.662;10.060;2022-11-15T04:09:31;7.13;;;3.22;;
51971;SDS011;37991;49.662;10.060;2022-11-15T04:12:15;5.43;;;3.33;;
51971;SDS011;37991;49.662;10.060;2022-11-15T04:15:15;4.47;;;3.05;;
51971;SDS011;37991;49.662;10.060;2022-11-15T04:18:01;6.05;;;3.40;;
51971;SDS011;37991;49.662;10.060;2022-11-15T04:20:44;5.07;;;2.83;;
51971;SDS011;37991;49.662;10.060;2022-11-15T04:23:47;7.28;;;2.80;;
51971;SDS011;37991;49.662;10.060;2022-11-15T04:26:31;7.57;;;3.25;;
51971;SDS011;37991;49.662;10.060;2022-11-15T04:29:15;14.30;;;3.43;;
51971;SDS011;37991;49.662;10.060;2022-11-15T04:32:18;5.55;;;3.10;;
51971;SDS011;37991;49.662;10.060;2022-11-15T04:35:02;4.45;;;3.00;;
51971;SDS011;37991;49.662;10.060;2022-11-15T04:37:46;4.35;;;3.30;;
51971;SDS011;37991;49.662;10.060;2022-11-15T04:40:30;7.28;;;3.60;;
51971;SDS011;37991;49.662;10.060;2022-11-15T04:43:14;6.68;;;3.40;;
51971;SDS011;37991;49.662;10.060;2022-11-15T04:45:57;5.10;;;3.00;;
51971;SDS011;37991;49.662;10.060;2022-11-15T04:48:41;5.22;;;3.08;;
51971;SDS011;37991;49.662;10.060;2022-11-15T04:51:25;6.40;;;3.45;;
51971;SDS011;37991;49.662;10.060;2022-11-15T04:54:09;5.13;;;2.92;;
51971;SDS011;37991;49.662;10.060;2022-11-15T04:56:53;4.30;;;3.00;;
51971;SDS011;37991;49.662;10.060;2022-11-15T04:59:37;5.95;;;2.70;;
51971;SDS011;37991;49.662;10.060;2022-11-15T05:02:21;5.28;;;3.10;;
51971;SDS011;37991;49.662;10.060;2022-11-15T05:05:05;6.22;;;3.00;;
51971;SDS011;37991;49.662;10.060;2022-11-15T05:07:49;7.50;;;3.07;;
51971;SDS011;37991;49.662;10.060;2022-11-15T05:10:33;4.25;;;3.00;;
51971;SDS011;37991;49.662;10.060;2022-11-15T05:13:17;6.00;;;3.30;;
51971;SDS011;37991;49.662;10.060;2022-11-15T05:16:01;5.68;;;2.90;;
51971;SDS011;37991;49.662;10.060;2022-11-15T05:18:45;6.22;;;3.58;;
51971;SDS011;37991;49.662;10.060;2022-11-15T05:21:29;5.05;;;3.13;;
51971;SDS011;37991;49.662;10.060;2022-11-15T05:24:13;5.30;;;3.10;;
51971;SDS011;37991;49.662;10.060;2022-11-15T05:26:57;6.85;;;3.28;;
51971;SDS011;37991;49.662;10.060;2022-11-15T05:29:41;5.40;;;3.65;;
51971;SDS011;37991;49.662;10.060;2022-11-15T05:32:25;9.07;;;3.10;;
51971;SDS011;37991;49.662;10.060;2022-11-15T05:35:25;5.18;;;2.70;;
51971;SDS011;37991;49.662;10.060;2022-11-15T05:38:23;6.13;;;3.30;;
51971;SDS011;37991;49.662;10.060;2022-11-15T05:41:07;7.10;;;3.28;;
51971;SDS011;37991;49.662;10.060;2022-11-15T05:43:52;4.40;;;2.80;;
51971;SDS011;37991;49.662;10.060;2022-11-15T05:46:36;7.57;;;3.25;;
51971;SDS011;37991;49.662;10.060;2022-11-15T05:49:24;6.05;;;3.20;;
51971;SDS011;37991;49.662;10.060;2022-11-15T05:52:13;6.65;;;3.67;;
51971;SDS011;37991;49.662;10.060;2022-11-15T05:55:00;6.15;;;3.40;;
51971;SDS011;37991;49.662;10.060;2022-11-15T05:57:46;6.30;;;3.67;;
51971;SDS011;37991;49.662;10.060;2022-11-15T06:00:31;8.40;;;3.37;;
51971;SDS011;37991;49.662;10.060;2022-11-15T06:03:14;5.03;;;3.05;;
51971;SDS011;37991;49.662;10.060;2022-11-15T06:05:58;4.90;;;3.40;;
51971;SDS011;37991;49.662;10.060;2022-11-15T06:08:42;4.82;;;3.22;;
51971;SDS011;37991;49.662;10.060;2022-11-15T06:11:26;5.53;;;3.15;;
51971;SDS011;37991;49.662;10.060;2022-11-15T06:14:11;4.72;;;3.08;;
51971;SDS011;37991;49.662;10.060;2022-11-15T06:16:54;8.53;;;3.33;;
51971;SDS011;37991;49.662;10.060;2022-11-15T06:19:38;5.38;;;3.20;;
51971;SDS011;37991;49.662;10.060;2022-11-15T06:22:22;4.43;;;3.22;;
51971;SDS011;37991;49.662;10.060;2022-11-15T06:25:06;5.00;;;3.30;;
51971;SDS011;37991;49.662;10.060;2022-11-15T06:27:51;6.20;;;3.10;;
51971;SDS011;37991;49.662;10.060;2022-11-15T06:30:38;6.57;;;3.72;;
51971;SDS011;37991;49.662;10.060;2022-11-15T06:33:22;7.68;;;3.72;;
51971;SDS011;37991;49.662;10.060;2022-11-15T06:36:08;7.43;;;3.37;;
51971;SDS011;37991;49.662;10.060;2022-11-15T06:38:53;6.70;;;3.15;;
51971;SDS011;37991;49.662;10.060;2022-11-15T06:41:37;6.70;;;3.35;;
51971;SDS011;37991;49.662;10.060;2022-11-15T06:44:21;6.82;;;3.78;;
51971;SDS011;37991;49.662;10.060;2022-11-15T06:47:05;7.45;;;3.42;;
51971;SDS011;37991;49.662;10.060;2022-11-15T06:49:49;8.43;;;3.75;;
51971;SDS011;37991;49.662;10.060;2022-11-15T06:52:33;5.10;;;3.15;;
51971;SDS011;37991;49.662;10.060;2022-11-15T06:55:17;5.40;;;3.33;;
51971;SDS011;37991;49.662;10.060;2022-11-15T06:58:01;5.38;;;3.60;;
51971;SDS011;37991;49.662;10.060;2022-11-15T07:00:45;8.23;;;4.65;;
51971;SDS011;37991;49.662;10.060;2022-11-15T07:03:29;5.53;;;3.53;;
51971;SDS011;37991;49.662;10.060;2022-11-15T07:06:13;9.70;;;4.88;;
51971;SDS011;37991;49.662;10.060;2022-11-15T07:08:57;7.40;;;3.85;;
51971;SDS011;37991;49.662;10.060;2022-11-15T07:11:41;6.55;;;3.70;;
51971;SDS011;37991;49.662;10.060;2022-11-15T07:14:25;6.43;;;3.95;;
51971;SDS011;37991;49.662;10.060;2022-11-15T07:17:09;6.82;;;3.70;;
51971;SDS011;37991;49.662;10.060;2022-11-15T07:19:53;5.40;;;3.60;;
51971;SDS011;37991;49.662;10.060;2022-11-15T07:22:37;9.45;;;4.85;;
51971;SDS011;37991;49.662;10.060;2022-11-15T07:25:20;8.25;;;3.95;;
51971;SDS011;37991;49.662;10.060;2022-11-15T07:28:04;8.57;;;4.13;;
51971;SDS011;37991;49.662;10.060;2022-11-15T07:30:48;7.63;;;4.45;;
51971;SDS011;37991;49.662;10.060;2022-11-15T07:33:32;7.40;;;4.13;;
51971;SDS011;37991;49.662;10.060;2022-11-15T07:36:17;5.78;;;3.75;;
51971;SDS011;37991;49.662;10.060;2022-11-15T07:39:01;5.13;;;3.60;;
51971;SDS011;37991;49.662;10.060;2022-11-15T07:41:46;8.15;;;4.25;;
51971;SDS011;37991;49.662;10.060;2022-11-15T07:47:15;10.70;;;3.85;;
51971;SDS011;37991;49.662;10.060;2022-11-15T07:49:59;6.63;;;4.00;;
51971;SDS011;37991;49.662;10.060;2022-11-15T07:52:43;8.80;;;4.47;;
51971;SDS011;37991;49.662;10.060;2022-11-15T07:55:28;6.13;;;3.90;;
51971;SDS011;37991;49.662;10.060;2022-11-15T07:58:13;7.47;;;4.83;;
51971;SDS011;37991;49.662;10.060;2022-11-15T08:00:57;11.63;;;4.53;;
51971;SDS011;37991;49.662;10.060;2022-11-15T08:03:41;7.38;;;4.38;;
51971;SDS011;37991;49.662;10.060;2022-11-15T08:06:25;10.30;;;4.65;;
51971;SDS011;37991;49.662;10.060;2022-11-15T08:09:09;9.52;;;4.50;;
51971;SDS011;37991;49.662;10.060;2022-11-15T08:11:53;8.60;;;4.13;;
51971;SDS011;37991;49.662;10.060;2022-11-15T08:14:37;10.88;;;4.60;;
51971;SDS011;37991;49.662;10.060;2022-11-15T08:17:22;9.27;;;4.38;;
51971;SDS011;37991;49.662;10.060;2022-11-15T08:20:07;7.88;;;4.47;;
51971;SDS011;37991;49.662;10.060;2022-11-15T08:22:51;16.50;;;5.23;;
51971;SDS011;37991;49.662;10.060;2022-11-15T08:25:35;17.08;;;5.80;;
51971;SDS011;37991;49.662;10.060;2022-11-15T08:28:19;11.15;;;5.65;;
51971;SDS011;37991;49.662;10.060;2022-11-15T08:31:03;9.63;;;4.90;;
51971;SDS011;37991;49.662;10.060;2022-11-15T08:33:47;14.40;;;5.57;;
51971;SDS011;37991;49.662;10.060;2022-11-15T08:36:31;11.93;;;5.70;;
51971;SDS011;37991;49.662;10.060;2022-11-15T08:39:16;11.80;;;5.40;;
51971;SDS011;37991;49.662;10.060;2022-11-15T08:42:00;12.27;;;5.40;;
51971;SDS011;37991;49.662;10.060;2022-11-15T08:44:44;9.60;;;5.32;;
51971;SDS011;37991;49.662;10.060;2022-11-15T08:47:28;13.43;;;5.90;;
51971;SDS011;37991;49.662;10.060;2022-11-15T08:50:12;11.88;;;5.95;;
51971;SDS011;37991;49.662;10.060;2022-11-15T08:52:56;11.52;;;5.93;;
51971;SDS011;37991;49.662;10.060;2022-11-15T08:55:41;12.88;;;6.18;;
51971;SDS011;37991;49.662;10.060;2022-11-15T08:58:25;14.70;;;6.88;;
51971;SDS011;37991;49.662;10.060;2022-11-15T09:01:19;22.63;;;6.05;;
51971;SDS011;37991;49.662;10.060;2022-11-15T09:04:04;18.38;;;6.03;;
51971;SDS011;37991;49.662;10.060;2022-11-15T09:06:48;14.32;;;6.45;;
51971;SDS011;37991;49.662;10.060;2022-11-15T09:09:32;15.27;;;6.50;;
51971;SDS011;37991;49.662;10.060;2022-11-15T09:12:16;12.27;;;6.95;;
51971;SDS011;37991;49.662;10.060;2022-11-15T09:15:00;22.85;;;6.30;;
51971;SDS011;37991;49.662;10.060;2022-11-15T09:17:44;17.90;;;6.90;;
51971;SDS011;37991;49.662;10.060;2022-11-15T09:20:28;16.55;;;7.13;;
51971;SDS011;37991;49.662;10.060;2022-11-15T09:23:12;17.02;;;7.03;;
51971;SDS011;37991;49.662;10.060;2022-11-15T09:26:00;18.35;;;7.93;;
51971;SDS011;37991;49.662;10.060;2022-11-15T09:28:46;12.75;;;6.82;;
51971;SDS011;37991;49.662;10.060;2022-11-15T09:31:30;17.52;;;7.45;;
51971;SDS011;37991;49.662;10.060;2022-11-15T09:34:15;19.55;;;7.70;;
51971;SDS011;37991;49.662;10.060;2022-11-15T09:36:59;13.48;;;6.75;;
51971;SDS011;37991;49.662;10.060;2022-11-15T09:39:43;15.60;;;6.85;;
51971;SDS011;37991;49.662;10.060;2022-11-15T09:45:55;16.60;;;7.47;;
51971;SDS011;37991;49.662;10.060;2022-11-15T09:48:46;21.90;;;6.95;;
51971;SDS011;37991;49.662;10.060;2022-11-15T09:51:40;21.83;;;6.45;;
51971;SDS011;37991;49.662;10.060;2022-11-15T09:57:14;14.77;;;6.40;;
51971;SDS011;37991;49.662;10.060;2022-11-15T10:05:12;8.98;;;4.90;;
51971;SDS011;37991;49.662;10.060;2022-11-15T10:07:46;9.88;;;4.80;;
51971;SDS011;37991;49.662;10.060;2022-11-15T10:10:22;12.03;;;5.10;;
51971;SDS011;37991;49.662;10.060;2022-11-15T10:12:55;10.00;;;5.13;;
51971;SDS011;37991;49.662;10.060;2022-11-15T10:15:20;10.70;;;4.85;;
51971;SDS011;37991;49.662;10.060;2022-11-15T10:20:48;9.57;;;4.82;;
51971;SDS011;37991;49.662;10.060;2022-11-15T10:23:18;7.65;;;4.43;;
51971;SDS011;37991;49.662;10.060;2022-11-15T10:25:46;10.98;;;4.47;;
51971;SDS011;37991;49.662;10.060;2022-11-15T10:28:28;12.57;;;4.72;;
51971;SDS011;37991;49.662;10.060;2022-11-15T10:30:56;7.75;;;4.57;;
51971;SDS011;37991;49.662;10.060;2022-11-15T10:33:33;10.23;;;4.55;;
51971;SDS011;37991;49.662;10.060;2022-11-15T10:41:17;9.52;;;4.47;;
51971;SDS011;37991;49.662;10.060;2022-11-15T10:44:02;10.27;;;4.63;;
51971;SDS011;37991;49.662;10.060;2022-11-15T10:46:31;12.57;;;4.72;;
51971;SDS011;37991;49.662;10.060;2022-11-15T10:49:11;8.63;;;5.05;;
51971;SDS011;37991;49.662;10.060;2022-11-15T10:51:40;9.43;;;4.93;;
51971;SDS011;37991;49.662;10.060;2022-11-15T10:54:10;8.07;;;4.72;;
51971;SDS011;37991;49.662;10.060;2022-11-15T10:56:37;13.23;;;5.60;;
51971;SDS011;37991;49.662;10.060;2022-11-15T10:59:04;10.90;;;5.35;;
51971;SDS011;37991;49.662;10.060;2022-11-15T11:01:29;17.80;;;4.85;;
51971;SDS011;37991;49.662;10.060;2022-11-15T11:06:26;10.10;;;4.50;;
51971;SDS011;37991;49.662;10.060;2022-11-15T11:08:56;8.32;;;4.85;;
51971;SDS011;37991;49.662;10.060;2022-11-15T11:11:23;9.68;;;4.80;;
51971;SDS011;37991;49.662;10.060;2022-11-15T11:13:49;9.63;;;4.85;;
51971;SDS011;37991;49.662;10.060;2022-11-15T11:24:33;7.35;;;4.38;;
51971;SDS011;37991;49.662;10.060;2022-11-15T11:27:08;9.13;;;4.65;;
51971;SDS011;37991;49.662;10.060;2022-11-15T11:29:49;8.32;;;4.60;;
51971;SDS011;37991;49.662;10.060;2022-11-15T11:32:40;9.50;;;5.05;;
51971;SDS011;37991;49.662;10.060;2022-11-15T11:35:23;14.55;;;4.97;;
51971;SDS011;37991;49.662;10.060;2022-11-15T11:38:15;8.73;;;4.65;;
51971;SDS011;37991;49.662;10.060;2022-11-15T11:43:21;7.57;;;4.43;;
51971;SDS011;37991;49.662;10.060;2022-11-15T11:46:03;11.55;;;4.68;;
51971;SDS011;37991;49.662;10.060;2022-11-15T11:48:43;10.98;;;4.97;;
51971;SDS011;37991;49.662;10.060;2022-11-15T11:51:27;7.45;;;4.35;;
51971;SDS011;37991;49.662;10.060;2022-11-15T11:53:57;9.25;;;4.10;;
51971;SDS011;37991;49.662;10.060;2022-11-15T11:56:29;7.95;;;4.40;;
51971;SDS011;37991;49.662;10.060;2022-11-15T12:02:01;9.35;;;4.30;;
51971;SDS011;37991;49.662;10.060;2022-11-15T12:04:38;8.65;;;4.30;;
51971;SDS011;37991;49.662;10.060;2022-11-15T12:07:08;8.35;;;4.10;;
51971;SDS011;37991;49.662;10.060;2022-11-15T12:09:43;6.10;;;4.00;;
51971;SDS011;37991;49.662;10.060;2022-11-15T12:12:49;7.97;;;3.88;;
51971;SDS011;37991;49.662;10.060;2022-11-15T12:15:13;9.60;;;3.85;;
51971;SDS011;37991;49.662;10.060;2022-11-15T12:17:43;7.65;;;4.10;;
51971;SDS011;37991;49.662;10.060;2022-11-15T12:20:14;6.43;;;3.50;;
51971;SDS011;37991;49.662;10.060;2022-11-15T12:28:17;8.32;;;4.03;;
51971;SDS011;37991;49.662;10.060;2022-11-15T12:30:52;7.25;;;3.80;;
51971;SDS011;37991;49.662;10.060;2022-11-15T12:33:31;8.07;;;3.83;;
51971;SDS011;37991;49.662;10.060;2022-11-15T12:36:01;14.05;;;4.05;;
51971;SDS011;37991;49.662;10.060;2022-11-15T12:41:17;5.32;;;3.50;;
51971;SDS011;37991;49.662;10.060;2022-11-15T12:43:44;6.90;;;3.75;;
51971;SDS011;37991;49.662;10.060;2022-11-15T12:46:20;11.85;;;4.45;;
51971;SDS011;37991;49.662;10.060;2022-11-15T12:51:23;7.55;;;3.50;;
51971;SDS011;37991;49.662;10.060;2022-11-15T13:02:20;8.52;;;4.07;;
51971;SDS011;37991;49.662;10.060;2022-11-15T13:04:48;5.28;;;3.83;;
51971;SDS011;37991;49.662;10.060;2022-11-15T13:17:50;8.48;;;4.15;;
51971;SDS011;37991;49.662;10.060;2022-11-15T13:20:19;6.93;;;3.88;;
51971;SDS011;37991;49.662;10.060;2022-11-15T13:30:53;9.02;;;4.00;;
51971;SDS011;37991;49.662;10.060;2022-11-15T13:35:51;9.35;;;3.72;;
51971;SDS011;37991;49.662;10.060;2022-11-15T13:40:59;8.10;;;3.63;;
51971;SDS011;37991;49.662;10.060;2022-11-15T13:43:35;5.68;;;3.58;;
51971;SDS011;37991;49.662;10.060;2022-11-15T13:48:34;8.53;;;3.67;;
51971;SDS011;37991;49.662;10.060;2022-11-15T13:51:01;8.48;;;3.97;;
51971;SDS011;37991;49.662;10.060;2022-11-15T13:53:35;6.82;;;3.40;;
51971;SDS011;37991;49.662;10.060;2022-11-15T13:56:05;10.60;;;3.88;;
51971;SDS011;37991;49.662;10.060;2022-11-15T13:58:31;6.85;;;3.60;;
51971;SDS011;37991;49.662;10.060;2022-11-15T14:01:01;6.90;;;3.70;;
51971;SDS011;37991;49.662;10.060;2022-11-15T14:03:33;6.28;;;4.05;;
51971;SDS011;37991;49.662;10.060;2022-11-15T14:06:12;7.75;;;4.25;;
51971;SDS011;37991;49.662;10.060;2022-11-15T14:08:40;7.55;;;4.10;;
51971;SDS011;37991;49.662;10.060;2022-11-15T14:11:26;8.05;;;3.90;;
51971;SDS011;37991;49.662;10.060;2022-11-15T14:14:11;8.70;;;3.92;;
51971;SDS011;37991;49.662;10.060;2022-11-15T14:16:46;5.72;;;3.50;;
51971;SDS011;37991;49.662;10.060;2022-11-15T14:19:33;8.23;;;4.30;;
51971;SDS011;37991;49.662;10.060;2022-11-15T14:22:16;7.97;;;4.13;;
51971;SDS011;37991;49.662;10.060;2022-11-15T14:24:46;7.88;;;3.97;;
51971;SDS011;37991;49.662;10.060;2022-11-15T14:27:30;5.60;;;3.30;;
51971;SDS011;37991;49.662;10.060;2022-11-15T14:29:56;4.97;;;2.97;;
51971;SDS011;37991;49.662;10.060;2022-11-15T14:32:27;6.60;;;3.70;;
51971;SDS011;37991;49.662;10.060;2022-11-15T14:34:57;5.80;;;3.10;;
51971;SDS011;37991;49.662;10.060;2022-11-15T14:37:31;6.65;;;3.25;;
51971;SDS011;37991;49.662;10.060;2022-11-15T14:39:59;6.00;;;3.15;;
51971;SDS011;37991;49.662;10.060;2022-11-15T14:42:25;4.88;;;3.00;;
51971;SDS011;37991;49.662;10.060;2022-11-15T14:44:51;7.07;;;3.40;;
51971;SDS011;37991;49.662;10.060;2022-11-15T14:47:17;4.85;;;3.25;;
51971;SDS011;37991;49.662;10.060;2022-11-15T14:49:43;6.18;;;3.40;;
51971;SDS011;37991;49.662;10.060;2022-11-15T14:55:04;12.20;;;4.25;;
51971;SDS011;37991;49.662;10.060;2022-11-15T14:57:40;9.05;;;4.53;;
51971;SDS011;37991;49.662;10.060;2022-11-15T15:00:05;8.18;;;4.63;;
51971;SDS011;37991;49.662;10.060;2022-11-15T15:05:22;8.40;;;4.40;;
51971;SDS011;37991;49.662;10.060;2022-11-15T15:07:49;7.88;;;4.38;;
51971;SDS011;37991;49.662;10.060;2022-11-15T15:10:16;11.77;;;4.63;;
51971;SDS011;37991;49.662;10.060;2022-11-15T15:12:43;7.40;;;3.70;;
51971;SDS011;37991;49.662;10.060;2022-11-15T15:15:12;9.13;;;3.95;;
51971;SDS011;37991;49.662;10.060;2022-11-15T15:17:39;9.43;;;3.97;;
51971;SDS011;37991;49.662;10.060;2022-11-15T15:20:05;9.90;;;4.28;;
51971;SDS011;37991;49.662;10.060;2022-11-15T15:22:30;7.78;;;3.95;;
51971;SDS011;37991;49.662;10.060;2022-11-15T15:24:56;6.30;;;3.40;;
51971;SDS011;37991;49.662;10.060;2022-11-15T15:27:21;6.68;;;3.55;;
51971;SDS011;37991;49.662;10.060;2022-11-15T15:29:46;9.40;;;3.40;;
51971;SDS011;37991;49.662;10.060;2022-11-15T15:32:12;9.05;;;4.28;;
51971;SDS011;37991;49.662;10.060;2022-11-15T15:34:38;8.02;;;3.65;;
51971;SDS011;37991;49.662;10.060;2022-11-15T15:39:49;6.63;;;3.65;;
51971;SDS011;37991;49.662;10.060;2022-11-15T15:42:16;6.15;;;3.35;;
51971;SDS011;37991;49.662;10.060;2022-11-15T15:44:41;4.45;;;3.05;;
51971;SDS011;37991;49.662;10.060;2022-11-15T15:47:25;7.72;;;3.40;;
51971;SDS011;37991;49.662;10.060;2022-11-15T15:49:50;6.30;;;3.38;;
51971;SDS011;37991;49.662;10.060;2022-11-15T15:52:16;9.15;;;3.38;;
51971;SDS011;37991;49.662;10.060;2022-11-15T15:54:41;5.20;;;3.35;;
51971;SDS011;37991;49.662;10.060;2022-11-15T15:57:07;6.57;;;3.50;;
51971;SDS011;37991;49.662;10.060;2022-11-15T15:59:36;5.70;;;3.30;;
51971;SDS011;37991;49.662;10.060;2022-11-15T16:02:01;7.60;;;3.35;;
51971;SDS011;37991;49.662;10.060;2022-11-15T16:04:26;5.13;;;2.97;;
51971;SDS011;37991;49.662;10.060;2022-11-15T16:06:57;7.30;;;3.03;;
51971;SDS011;37991;49.662;10.060;2022-11-15T16:09:23;7.32;;;3.00;;
51971;SDS011;37991;49.662;10.060;2022-11-15T16:12:08;7.82;;;2.85;;
51971;SDS011;37991;49.662;10.060;2022-11-15T16:14:34;4.47;;;2.65;;
51971;SDS011;37991;49.662;10.060;2022-11-15T16:16:59;9.68;;;2.70;;
51971;SDS011;37991;49.662;10.060;2022-11-15T16:19:25;5.15;;;2.88;;
51971;SDS011;37991;49.662;10.060;2022-11-15T16:21:50;6.90;;;2.67;;
51971;SDS011;37991;49.662;10.060;2022-11-15T16:24:17;4.00;;;2.33;;
51971;SDS011;37991;49.662;10.060;2022-11-15T16:26:43;4.57;;;2.80;;
51971;SDS011;37991;49.662;10.060;2022-11-15T16:29:08;5.38;;;2.70;;
51971;SDS011;37991;49.662;10.060;2022-11-15T16:31:35;4.53;;;2.55;;
51971;SDS011;37991;49.662;10.060;2022-11-15T16:34:00;4.38;;;2.40;;
51971;SDS011;37991;49.662;10.060;2022-11-15T16:36:26;4.95;;;2.60;;
51971;SDS011;37991;49.662;10.060;2022-11-15T16:38:52;4.93;;;2.60;;
51971;SDS011;37991;49.662;10.060;2022-11-15T16:41:17;4.03;;;2.80;;
51971;SDS011;37991;49.662;10.060;2022-11-15T16:43:44;3.67;;;3.00;;
51971;SDS011;37991;49.662;10.060;2022-11-15T16:46:15;4.47;;;2.60;;
51971;SDS011;37991;49.662;10.060;2022-11-15T16:48:43;3.20;;;2.47;;
51971;SDS011;37991;49.662;10.060;2022-11-15T16:51:09;6.45;;;2.67;;
51971;SDS011;37991;49.662;10.060;2022-11-15T16:53:35;8.85;;;3.10;;
51971;SDS011;37991;49.662;10.060;2022-11-15T16:56:00;6.28;;;2.85;;
51971;SDS011;37991;49.662;10.060;2022-11-15T16:58:26;6.00;;;3.30;;
51971;SDS011;37991;49.662;10.060;2022-11-15T17:00:55;6.13;;;2.97;;
51971;SDS011;37991;49.662;10.060;2022-11-15T17:03:21;5.97;;;3.40;;
51971;SDS011;37991;49.662;10.060;2022-11-15T17:05:48;4.93;;;2.90;;
51971;SDS011;37991;49.662;10.060;2022-11-15T17:08:14;5.38;;;3.17;;
51971;SDS011;37991;49.662;10.060;2022-11-15T17:10:39;5.50;;;2.90;;
51971;SDS011;37991;49.662;10.060;2022-11-15T17:13:05;8.10;;;3.30;;
51971;SDS011;37991;49.662;10.060;2022-11-15T17:15:32;5.70;;;2.92;;
51971;SDS011;37991;49.662;10.060;2022-11-15T17:17:57;5.03;;;3.30;;
51971;SDS011;37991;49.662;10.060;2022-11-15T17:20:23;5.47;;;3.08;;
51971;SDS011;37991;49.662;10.060;2022-11-15T17:22:49;10.70;;;3.15;;
51971;SDS011;37991;49.662;10.060;2022-11-15T17:25:15;5.28;;;3.10;;
51971;SDS011;37991;49.662;10.060;2022-11-15T17:27:41;5.47;;;2.92;;
51971;SDS011;37991;49.662;10.060;2022-11-15T17:30:06;7.90;;;2.92;;
51971;SDS011;37991;49.662;10.060;2022-11-15T17:32:34;7.68;;;3.33;;